Atlanticbeach, North Carolina
Current Conditions -  °F | °C
As of 5:58 PM on Thursday 23 Oct 2014 (Local Time) from KMRH Reporting Station
Clear Clear  
Wind Chill: 18°   Ceiling: Unl
Heat Index: 18°   Visibility: 10mi
Dew Point:   Wind: 9mph
Humidity: 54%   Direction: 280°W
Pressure: 29.9"   Gusts: NA
Location:  34.6984°N, 76.7775°W
Report Text: KMRH 232158Z AUTO 28008KT 10SM CLR 18/09 A2990 RMK AO2 SLP126 T01830089 TSNO
Loading
Personal Weather Stations






























Interactive Weather Map New forecast layout! Learn more

10-Day Weather Forecast

Advertisements
Track Severe Weather on mobile